Decoded Metar for KEET (ALABASTER in AL, USA) (IATA:EET) | Meteo·Mobile Aviation Weather
aviador You're here:

KEET Decoded Metar

ALABASTER in AL, USA
Report Time2018-12-17 10:10:00
UTC Time2018-12-17 10:25:56
Flight Rules ifr IFR
Wind290° at 03 kt
W.Decomp.*RWY 34: 2.0 kt HW 2.2 kt LCW
W.Rank290° ranks 16
Current wind is below 290° avg. (5.9)
Visibility8047 m
Phenomena:Mist
Clouds:Overcast 005 Hf
Ceiling500 ft
Temp08°C (ISA -6)
Dew Point08°C (100% RH)
AAT6.5°C
QNH1023 hPa
Density Alt-328 ft
Elevation568 ft
Report Wrong Elevation
Raw Report
KEET 171010Z AUTO 29003KT 5SM BR OVC005 08/08 A3020 RMK AO2
T00780078=

Extra information for KEET:More info

Metar Taf Metar & Taf Last 4 Metars F.Rules Stats Wind Profile Meteogram Temp Stats Airport Information Weather charts Add Link Nearby VenuesMetar ALERT Operation Metar Decoded Social comments

AIRNAV info for KEET